sensor_id;sensor_type;location;lat;lon;timestamp;P1;durP1;ratioP1;P2;durP2;ratioP2
84933;SDS011;75195;56.858;41.422;2024-03-23T00:55:31;24.08;;;10.35;;
84933;SDS011;75195;56.858;41.422;2024-03-23T00:57:58;26.27;;;11.20;;
84933;SDS011;75195;56.858;41.422;2024-03-23T01:00:24;25.15;;;10.60;;
84933;SDS011;75195;56.858;41.422;2024-03-23T01:02:51;21.38;;;9.00;;
84933;SDS011;75195;56.858;41.422;2024-03-23T01:05:20;25.48;;;10.50;;
84933;SDS011;75195;56.858;41.422;2024-03-23T01:07:46;27.23;;;10.65;;
84933;SDS011;75195;56.858;41.422;2024-03-23T01:10:13;23.58;;;8.80;;
84933;SDS011;75195;56.858;41.422;2024-03-23T01:12:39;26.75;;;9.85;;
84933;SDS011;75195;56.858;41.422;2024-03-23T01:15:05;18.30;;;8.43;;
84933;SDS011;75195;56.858;41.422;2024-03-23T01:17:32;26.23;;;10.63;;
84933;SDS011;75195;56.858;41.422;2024-03-23T01:20:01;24.58;;;11.43;;
84933;SDS011;75195;56.858;41.422;2024-03-23T01:22:30;25.60;;;9.65;;
84933;SDS011;75195;56.858;41.422;2024-03-23T01:24:57;30.55;;;11.05;;
84933;SDS011;75195;56.858;41.422;2024-03-23T01:27:23;28.92;;;10.73;;
84933;SDS011;75195;56.858;41.422;2024-03-23T01:29:50;29.77;;;11.82;;
84933;SDS011;75195;56.858;41.422;2024-03-23T01:32:18;26.20;;;9.73;;
84933;SDS011;75195;56.858;41.422;2024-03-23T01:34:45;25.77;;;10.75;;
84933;SDS011;75195;56.858;41.422;2024-03-23T01:37:11;21.42;;;10.10;;
84933;SDS011;75195;56.858;41.422;2024-03-23T01:39:37;23.20;;;9.75;;
84933;SDS011;75195;56.858;41.422;2024-03-23T01:42:04;24.55;;;10.52;;
84933;SDS011;75195;56.858;41.422;2024-03-23T01:44:30;22.13;;;10.15;;
84933;SDS011;75195;56.858;41.422;2024-03-23T01:46:57;28.40;;;11.35;;
84933;SDS011;75195;56.858;41.422;2024-03-23T01:49:23;30.52;;;10.98;;
84933;SDS011;75195;56.858;41.422;2024-03-23T01:51:50;28.23;;;9.98;;
84933;SDS011;75195;56.858;41.422;2024-03-23T01:54:16;24.50;;;10.10;;
84933;SDS011;75195;56.858;41.422;2024-03-23T01:56:43;28.85;;;11.75;;
84933;SDS011;75195;56.858;41.422;2024-03-23T01:59:09;25.85;;;10.82;;
84933;SDS011;75195;56.858;41.422;2024-03-23T02:01:38;29.38;;;11.35;;
84933;SDS011;75195;56.858;41.422;2024-03-23T02:04:05;20.42;;;9.15;;
84933;SDS011;75195;56.858;41.422;2024-03-23T02:06:31;30.50;;;10.85;;
84933;SDS011;75195;56.858;41.422;2024-03-23T02:08:57;32.33;;;12.35;;
84933;SDS011;75195;56.858;41.422;2024-03-23T02:11:24;24.77;;;10.85;;
84933;SDS011;75195;56.858;41.422;2024-03-23T02:13:50;31.60;;;12.23;;
84933;SDS011;75195;56.858;41.422;2024-03-23T02:16:17;27.02;;;11.00;;
84933;SDS011;75195;56.858;41.422;2024-03-23T02:18:44;31.02;;;9.63;;
84933;SDS011;75195;56.858;41.422;2024-03-23T02:21:10;30.23;;;12.10;;
84933;SDS011;75195;56.858;41.422;2024-03-23T02:23:36;37.53;;;13.13;;
84933;SDS011;75195;56.858;41.422;2024-03-23T02:26:03;31.25;;;11.65;;
84933;SDS011;75195;56.858;41.422;2024-03-23T02:28:29;30.63;;;10.85;;
84933;SDS011;75195;56.858;41.422;2024-03-23T02:30:55;23.58;;;10.15;;
84933;SDS011;75195;56.858;41.422;2024-03-23T02:33:22;33.17;;;11.05;;
84933;SDS011;75195;56.858;41.422;2024-03-23T02:35:50;32.60;;;11.13;;
84933;SDS011;75195;56.858;41.422;2024-03-23T02:38:16;26.98;;;11.15;;
84933;SDS011;75195;56.858;41.422;2024-03-23T02:40:43;31.58;;;12.45;;
84933;SDS011;75195;56.858;41.422;2024-03-23T02:43:09;29.50;;;11.75;;
84933;SDS011;75195;56.858;41.422;2024-03-23T02:45:35;33.53;;;11.10;;
84933;SDS011;75195;56.858;41.422;2024-03-23T02:48:02;28.52;;;11.68;;
84933;SDS011;75195;56.858;41.422;2024-03-23T02:50:29;34.45;;;11.63;;
84933;SDS011;75195;56.858;41.422;2024-03-23T02:52:56;32.03;;;12.88;;
84933;SDS011;75195;56.858;41.422;2024-03-23T02:55:22;34.35;;;12.60;;
84933;SDS011;75195;56.858;41.422;2024-03-23T02:57:48;33.42;;;11.80;;
84933;SDS011;75195;56.858;41.422;2024-03-23T03:00:17;32.05;;;12.73;;
84933;SDS011;75195;56.858;41.422;2024-03-23T03:02:44;31.08;;;11.93;;
84933;SDS011;75195;56.858;41.422;2024-03-23T03:05:10;34.47;;;12.18;;
84933;SDS011;75195;56.858;41.422;2024-03-23T03:07:38;28.42;;;11.40;;
84933;SDS011;75195;56.858;41.422;2024-03-23T03:10:06;31.08;;;11.77;;
84933;SDS011;75195;56.858;41.422;2024-03-23T03:12:36;33.45;;;11.77;;
84933;SDS011;75195;56.858;41.422;2024-03-23T03:15:03;30.90;;;12.40;;
84933;SDS011;75195;56.858;41.422;2024-03-23T03:17:31;33.20;;;12.55;;
84933;SDS011;75195;56.858;41.422;2024-03-23T03:19:57;36.35;;;12.40;;
84933;SDS011;75195;56.858;41.422;2024-03-23T03:22:26;32.42;;;11.90;;
84933;SDS011;75195;56.858;41.422;2024-03-23T03:24:52;26.63;;;11.45;;
84933;SDS011;75195;56.858;41.422;2024-03-23T03:27:19;32.20;;;11.77;;
84933;SDS011;75195;56.858;41.422;2024-03-23T03:29:45;33.80;;;11.30;;
84933;SDS011;75195;56.858;41.422;2024-03-23T03:32:11;33.10;;;11.88;;
84933;SDS011;75195;56.858;41.422;2024-03-23T03:34:38;34.30;;;15.00;;
84933;SDS011;75195;56.858;41.422;2024-03-23T03:37:04;34.15;;;13.38;;
84933;SDS011;75195;56.858;41.422;2024-03-23T03:39:31;33.67;;;12.77;;
84933;SDS011;75195;56.858;41.422;2024-03-23T03:41:57;38.08;;;13.57;;
84933;SDS011;75195;56.858;41.422;2024-03-23T03:44:24;34.90;;;12.27;;
84933;SDS011;75195;56.858;41.422;2024-03-23T03:46:50;37.05;;;13.25;;
84933;SDS011;75195;56.858;41.422;2024-03-23T03:49:16;40.10;;;13.15;;
84933;SDS011;75195;56.858;41.422;2024-03-23T03:51:43;34.05;;;11.27;;
84933;SDS011;75195;56.858;41.422;2024-03-23T03:54:09;40.35;;;13.98;;
84933;SDS011;75195;56.858;41.422;2024-03-23T03:56:35;38.72;;;13.23;;
84933;SDS011;75195;56.858;41.422;2024-03-23T03:59:02;34.67;;;12.23;;
84933;SDS011;75195;56.858;41.422;2024-03-23T04:01:29;31.25;;;11.65;;
84933;SDS011;75195;56.858;41.422;2024-03-23T04:03:55;29.55;;;12.55;;
84933;SDS011;75195;56.858;41.422;2024-03-23T04:06:21;33.50;;;12.68;;
84933;SDS011;75195;56.858;41.422;2024-03-23T04:08:48;34.20;;;12.40;;
84933;SDS011;75195;56.858;41.422;2024-03-23T04:11:14;28.15;;;13.02;;
84933;SDS011;75195;56.858;41.422;2024-03-23T04:13:41;35.25;;;13.00;;
84933;SDS011;75195;56.858;41.422;2024-03-23T04:16:07;39.35;;;14.07;;
84933;SDS011;75195;56.858;41.422;2024-03-23T04:18:35;29.92;;;10.73;;
84933;SDS011;75195;56.858;41.422;2024-03-23T04:21:01;30.02;;;12.75;;
84933;SDS011;75195;56.858;41.422;2024-03-23T04:23:28;33.92;;;12.95;;
84933;SDS011;75195;56.858;41.422;2024-03-23T04:25:55;38.28;;;12.70;;
84933;SDS011;75195;56.858;41.422;2024-03-23T04:28:21;40.10;;;13.65;;
84933;SDS011;75195;56.858;41.422;2024-03-23T04:30:49;35.53;;;13.90;;
84933;SDS011;75195;56.858;41.422;2024-03-23T04:33:15;36.33;;;13.38;;
84933;SDS011;75195;56.858;41.422;2024-03-23T04:35:42;45.22;;;14.90;;
84933;SDS011;75195;56.858;41.422;2024-03-23T04:38:09;34.60;;;12.90;;
84933;SDS011;75195;56.858;41.422;2024-03-23T04:40:35;39.13;;;14.55;;
84933;SDS011;75195;56.858;41.422;2024-03-23T04:43:03;38.25;;;14.10;;
84933;SDS011;75195;56.858;41.422;2024-03-23T04:45:31;37.92;;;14.52;;
84933;SDS011;75195;56.858;41.422;2024-03-23T04:47:57;35.67;;;13.23;;
84933;SDS011;75195;56.858;41.422;2024-03-23T04:50:23;45.67;;;16.25;;
84933;SDS011;75195;56.858;41.422;2024-03-23T04:52:50;38.17;;;14.52;;
84933;SDS011;75195;56.858;41.422;2024-03-23T04:55:16;39.88;;;14.18;;
84933;SDS011;75195;56.858;41.422;2024-03-23T04:57:44;42.00;;;14.75;;
84933;SDS011;75195;56.858;41.422;2024-03-23T05:00:10;40.75;;;15.45;;
84933;SDS011;75195;56.858;41.422;2024-03-23T05:02:44;48.03;;;15.50;;
84933;SDS011;75195;56.858;41.422;2024-03-23T05:05:11;43.00;;;15.55;;
84933;SDS011;75195;56.858;41.422;2024-03-23T05:07:38;41.38;;;15.32;;
84933;SDS011;75195;56.858;41.422;2024-03-23T05:10:04;47.60;;;16.92;;
84933;SDS011;75195;56.858;41.422;2024-03-23T05:12:31;47.53;;;17.67;;
84933;SDS011;75195;56.858;41.422;2024-03-23T05:14:58;35.92;;;14.13;;
84933;SDS011;75195;56.858;41.422;2024-03-23T05:17:24;40.83;;;13.60;;
84933;SDS011;75195;56.858;41.422;2024-03-23T05:19:51;36.20;;;14.88;;
84933;SDS011;75195;56.858;41.422;2024-03-23T05:22:17;41.90;;;15.02;;
84933;SDS011;75195;56.858;41.422;2024-03-23T05:24:45;41.67;;;15.48;;
84933;SDS011;75195;56.858;41.422;2024-03-23T05:27:14;36.65;;;13.88;;
84933;SDS011;75195;56.858;41.422;2024-03-23T05:29:41;45.88;;;15.77;;
84933;SDS011;75195;56.858;41.422;2024-03-23T05:32:07;42.35;;;14.65;;
84933;SDS011;75195;56.858;41.422;2024-03-23T05:34:34;47.20;;;13.40;;
84933;SDS011;75195;56.858;41.422;2024-03-23T05:37:00;44.58;;;15.10;;
84933;SDS011;75195;56.858;41.422;2024-03-23T05:39:26;33.83;;;13.77;;
84933;SDS011;75195;56.858;41.422;2024-03-23T05:41:53;45.28;;;14.80;;
84933;SDS011;75195;56.858;41.422;2024-03-23T05:44:19;46.53;;;16.08;;
84933;SDS011;75195;56.858;41.422;2024-03-23T05:46:46;33.50;;;12.52;;
84933;SDS011;75195;56.858;41.422;2024-03-23T05:49:15;42.80;;;15.35;;
84933;SDS011;75195;56.858;41.422;2024-03-23T05:51:43;39.17;;;15.32;;
84933;SDS011;75195;56.858;41.422;2024-03-23T05:54:09;46.40;;;16.73;;
84933;SDS011;75195;56.858;41.422;2024-03-23T05:56:36;43.45;;;18.02;;
84933;SDS011;75195;56.858;41.422;2024-03-23T05:59:02;46.65;;;18.42;;
84933;SDS011;75195;56.858;41.422;2024-03-23T06:01:29;40.47;;;15.23;;
84933;SDS011;75195;56.858;41.422;2024-03-23T06:03:59;45.30;;;15.63;;
84933;SDS011;75195;56.858;41.422;2024-03-23T06:06:27;36.95;;;13.63;;
84933;SDS011;75195;56.858;41.422;2024-03-23T06:08:56;42.40;;;14.90;;
84933;SDS011;75195;56.858;41.422;2024-03-23T06:11:23;38.05;;;15.02;;
84933;SDS011;75195;56.858;41.422;2024-03-23T06:13:49;43.17;;;14.50;;
84933;SDS011;75195;56.858;41.422;2024-03-23T06:16:16;42.25;;;16.10;;
84933;SDS011;75195;56.858;41.422;2024-03-23T06:18:42;44.80;;;16.20;;
84933;SDS011;75195;56.858;41.422;2024-03-23T06:21:18;39.58;;;14.10;;
84933;SDS011;75195;56.858;41.422;2024-03-23T06:23:44;38.67;;;15.57;;
84933;SDS011;75195;56.858;41.422;2024-03-23T06:26:17;36.97;;;13.38;;
84933;SDS011;75195;56.858;41.422;2024-03-23T06:28:47;43.50;;;16.65;;
84933;SDS011;75195;56.858;41.422;2024-03-23T06:31:13;42.13;;;15.13;;
84933;SDS011;75195;56.858;41.422;2024-03-23T06:33:40;41.90;;;15.80;;
84933;SDS011;75195;56.858;41.422;2024-03-23T06:36:10;44.83;;;15.18;;
84933;SDS011;75195;56.858;41.422;2024-03-23T06:38:37;33.25;;;13.20;;
84933;SDS011;75195;56.858;41.422;2024-03-23T06:41:04;34.08;;;14.52;;
84933;SDS011;75195;56.858;41.422;2024-03-23T06:43:31;37.80;;;14.32;;
84933;SDS011;75195;56.858;41.422;2024-03-23T06:45:58;38.45;;;14.68;;
84933;SDS011;75195;56.858;41.422;2024-03-23T06:48:24;40.35;;;14.90;;
84933;SDS011;75195;56.858;41.422;2024-03-23T06:50:55;37.67;;;13.85;;
84933;SDS011;75195;56.858;41.422;2024-03-23T06:53:22;29.33;;;13.02;;
84933;SDS011;75195;56.858;41.422;2024-03-23T06:55:52;39.53;;;15.20;;
84933;SDS011;75195;56.858;41.422;2024-03-23T06:58:23;34.22;;;13.05;;
84933;SDS011;75195;56.858;41.422;2024-03-23T07:00:50;36.60;;;13.48;;
84933;SDS011;75195;56.858;41.422;2024-03-23T07:03:16;37.75;;;15.18;;
84933;SDS011;75195;56.858;41.422;2024-03-23T07:05:43;34.72;;;13.70;;
84933;SDS011;75195;56.858;41.422;2024-03-23T07:08:12;36.67;;;14.23;;
84933;SDS011;75195;56.858;41.422;2024-03-23T07:10:41;38.42;;;15.13;;
84933;SDS011;75195;56.858;41.422;2024-03-23T07:13:08;28.35;;;12.70;;
84933;SDS011;75195;56.858;41.422;2024-03-23T07:15:34;37.80;;;15.30;;
84933;SDS011;75195;56.858;41.422;2024-03-23T07:18:01;34.58;;;13.73;;
84933;SDS011;75195;56.858;41.422;2024-03-23T07:20:27;36.38;;;12.32;;
84933;SDS011;75195;56.858;41.422;2024-03-23T07:22:55;40.88;;;14.60;;
84933;SDS011;75195;56.858;41.422;2024-03-23T07:25:21;31.50;;;13.57;;
84933;SDS011;75195;56.858;41.422;2024-03-23T07:27:49;37.17;;;13.57;;
84933;SDS011;75195;56.858;41.422;2024-03-23T07:30:15;34.22;;;12.98;;
84933;SDS011;75195;56.858;41.422;2024-03-23T07:32:43;32.47;;;12.77;;
84933;SDS011;75195;56.858;41.422;2024-03-23T07:35:10;31.35;;;12.18;;
84933;SDS011;75195;56.858;41.422;2024-03-23T07:37:37;33.85;;;14.25;;
84933;SDS011;75195;56.858;41.422;2024-03-23T07:40:03;33.45;;;13.05;;
84933;SDS011;75195;56.858;41.422;2024-03-23T07:42:30;29.65;;;12.75;;
84933;SDS011;75195;56.858;41.422;2024-03-23T07:44:56;37.47;;;13.88;;
84933;SDS011;75195;56.858;41.422;2024-03-23T07:47:23;33.22;;;14.27;;
84933;SDS011;75195;56.858;41.422;2024-03-23T07:49:50;28.30;;;13.32;;
84933;SDS011;75195;56.858;41.422;2024-03-23T07:52:16;31.42;;;12.60;;
84933;SDS011;75195;56.858;41.422;2024-03-23T07:54:42;36.17;;;13.65;;
84933;SDS011;75195;56.858;41.422;2024-03-23T07:57:09;35.80;;;13.50;;
84933;SDS011;75195;56.858;41.422;2024-03-23T07:59:35;29.85;;;11.73;;
84933;SDS011;75195;56.858;41.422;2024-03-23T08:02:01;26.67;;;11.90;;
84933;SDS011;75195;56.858;41.422;2024-03-23T08:04:28;30.02;;;12.52;;
84933;SDS011;75195;56.858;41.422;2024-03-23T08:06:54;26.00;;;12.07;;
84933;SDS011;75195;56.858;41.422;2024-03-23T08:09:23;26.65;;;11.07;;
84933;SDS011;75195;56.858;41.422;2024-03-23T08:11:49;28.80;;;12.88;;
84933;SDS011;75195;56.858;41.422;2024-03-23T08:14:16;31.13;;;12.23;;
84933;SDS011;75195;56.858;41.422;2024-03-23T08:16:42;25.98;;;12.75;;
84933;SDS011;75195;56.858;41.422;2024-03-23T08:19:14;26.55;;;11.20;;
84933;SDS011;75195;56.858;41.422;2024-03-23T08:21:41;25.38;;;11.35;;
84933;SDS011;75195;56.858;41.422;2024-03-23T08:24:08;21.38;;;9.00;;
84933;SDS011;75195;56.858;41.422;2024-03-23T08:26:34;27.73;;;11.85;;
84933;SDS011;75195;56.858;41.422;2024-03-23T08:29:01;21.35;;;10.98;;
84933;SDS011;75195;56.858;41.422;2024-03-23T08:31:28;28.27;;;11.55;;
84933;SDS011;75195;56.858;41.422;2024-03-23T08:33:54;24.42;;;11.20;;
84933;SDS011;75195;56.858;41.422;2024-03-23T08:36:20;23.17;;;10.23;;
84933;SDS011;75195;56.858;41.422;2024-03-23T08:38:47;22.83;;;11.00;;
84933;SDS011;75195;56.858;41.422;2024-03-23T08:41:16;22.88;;;10.50;;
84933;SDS011;75195;56.858;41.422;2024-03-23T08:43:42;22.17;;;11.32;;
84933;SDS011;75195;56.858;41.422;2024-03-23T08:46:10;37.75;;;15.98;;
84933;SDS011;75195;56.858;41.422;2024-03-23T08:48:40;30.30;;;13.80;;
84933;SDS011;75195;56.858;41.422;2024-03-23T08:51:10;25.85;;;12.10;;
84933;SDS011;75195;56.858;41.422;2024-03-23T08:53:37;21.23;;;9.57;;
84933;SDS011;75195;56.858;41.422;2024-03-23T08:56:05;20.83;;;9.38;;
84933;SDS011;75195;56.858;41.422;2024-03-23T08:58:33;25.02;;;9.75;;
84933;SDS011;75195;56.858;41.422;2024-03-23T09:01:18;23.95;;;10.13;;
84933;SDS011;75195;56.858;41.422;2024-03-23T09:03:44;26.15;;;11.05;;
84933;SDS011;75195;56.858;41.422;2024-03-23T09:06:11;30.80;;;13.68;;
84933;SDS011;75195;56.858;41.422;2024-03-23T09:08:40;23.30;;;10.40;;
84933;SDS011;75195;56.858;41.422;2024-03-23T09:11:07;24.23;;;12.25;;
84933;SDS011;75195;56.858;41.422;2024-03-23T09:13:35;27.02;;;12.43;;
84933;SDS011;75195;56.858;41.422;2024-03-23T09:16:02;23.45;;;11.18;;
84933;SDS011;75195;56.858;41.422;2024-03-23T09:18:33;23.92;;;12.27;;
84933;SDS011;75195;56.858;41.422;2024-03-23T09:21:04;22.20;;;11.02;;
84933;SDS011;75195;56.858;41.422;2024-03-23T09:23:37;26.92;;;11.57;;
84933;SDS011;75195;56.858;41.422;2024-03-23T09:26:04;21.48;;;10.02;;
84933;SDS011;75195;56.858;41.422;2024-03-23T09:28:30;20.42;;;10.32;;
84933;SDS011;75195;56.858;41.422;2024-03-23T09:31:04;22.00;;;10.35;;
84933;SDS011;75195;56.858;41.422;2024-03-23T09:33:34;22.00;;;9.27;;
84933;SDS011;75195;56.858;41.422;2024-03-23T09:36:04;21.73;;;9.88;;
84933;SDS011;75195;56.858;41.422;2024-03-23T09:38:31;28.42;;;13.57;;
84933;SDS011;75195;56.858;41.422;2024-03-23T09:40:57;23.88;;;10.43;;
84933;SDS011;75195;56.858;41.422;2024-03-23T09:43:25;21.83;;;11.20;;
84933;SDS011;75195;56.858;41.422;2024-03-23T09:45:52;25.02;;;12.32;;
84933;SDS011;75195;56.858;41.422;2024-03-23T09:48:19;19.67;;;9.13;;
84933;SDS011;75195;56.858;41.422;2024-03-23T09:50:45;22.00;;;10.48;;
84933;SDS011;75195;56.858;41.422;2024-03-23T09:53:13;21.92;;;10.32;;
84933;SDS011;75195;56.858;41.422;2024-03-23T09:55:40;22.25;;;10.43;;
84933;SDS011;75195;56.858;41.422;2024-03-23T09:58:08;21.63;;;10.90;;
84933;SDS011;75195;56.858;41.422;2024-03-23T10:00:35;21.10;;;10.35;;
84933;SDS011;75195;56.858;41.422;2024-03-23T10:03:02;21.45;;;10.50;;
84933;SDS011;75195;56.858;41.422;2024-03-23T10:05:29;28.05;;;10.70;;
84933;SDS011;75195;56.858;41.422;2024-03-23T10:07:58;25.50;;;12.57;;
84933;SDS011;75195;56.858;41.422;2024-03-23T10:10:24;19.30;;;10.52;;
84933;SDS011;75195;56.858;41.422;2024-03-23T10:12:51;27.92;;;13.27;;
84933;SDS011;75195;56.858;41.422;2024-03-23T10:15:24;26.20;;;12.30;;
84933;SDS011;75195;56.858;41.422;2024-03-23T10:17:51;29.20;;;13.32;;
84933;SDS011;75195;56.858;41.422;2024-03-23T10:20:22;21.98;;;11.30;;
84933;SDS011;75195;56.858;41.422;2024-03-23T10:22:49;19.92;;;11.77;;
84933;SDS011;75195;56.858;41.422;2024-03-23T10:25:17;21.65;;;10.70;;
84933;SDS011;75195;56.858;41.422;2024-03-23T10:27:57;25.10;;;12.38;;
84933;SDS011;75195;56.858;41.422;2024-03-23T10:30:25;24.02;;;11.75;;
84933;SDS011;75195;56.858;41.422;2024-03-23T10:33:12;18.02;;;9.88;;
84933;SDS011;75195;56.858;41.422;2024-03-23T10:35:39;26.52;;;12.13;;
84933;SDS011;75195;56.858;41.422;2024-03-23T10:38:06;34.85;;;15.32;;
84933;SDS011;75195;56.858;41.422;2024-03-23T10:40:34;29.63;;;13.82;;
84933;SDS011;75195;56.858;41.422;2024-03-23T10:43:01;36.35;;;14.65;;
84933;SDS011;75195;56.858;41.422;2024-03-23T10:45:30;25.73;;;11.80;;
84933;SDS011;75195;56.858;41.422;2024-03-23T10:47:56;57.35;;;20.83;;
84933;SDS011;75195;56.858;41.422;2024-03-23T10:50:23;35.90;;;15.30;;
84933;SDS011;75195;56.858;41.422;2024-03-23T10:52:50;29.35;;;14.25;;
84933;SDS011;75195;56.858;41.422;2024-03-23T10:55:19;41.10;;;19.02;;
84933;SDS011;75195;56.858;41.422;2024-03-23T10:57:54;32.05;;;15.45;;
84933;SDS011;75195;56.858;41.422;2024-03-23T11:00:20;48.38;;;20.75;;
84933;SDS011;75195;56.858;41.422;2024-03-23T11:02:48;49.80;;;21.63;;
84933;SDS011;75195;56.858;41.422;2024-03-23T11:07:50;24.83;;;11.75;;
84933;SDS011;75195;56.858;41.422;2024-03-23T11:10:38;19.63;;;10.18;;
84933;SDS011;75195;56.858;41.422;2024-03-23T11:13:22;17.83;;;9.25;;
84933;SDS011;75195;56.858;41.422;2024-03-23T11:15:48;17.70;;;8.93;;
84933;SDS011;75195;56.858;41.422;2024-03-23T11:18:20;14.60;;;8.45;;
84933;SDS011;75195;56.858;41.422;2024-03-23T11:20:47;14.68;;;8.25;;
84933;SDS011;75195;56.858;41.422;2024-03-23T11:23:29;14.85;;;7.80;;
84933;SDS011;75195;56.858;41.422;2024-03-23T11:25:55;17.65;;;9.25;;
84933;SDS011;75195;56.858;41.422;2024-03-23T11:28:21;46.70;;;21.10;;
84933;SDS011;75195;56.858;41.422;2024-03-23T11:30:48;34.70;;;16.20;;
84933;SDS011;75195;56.858;41.422;2024-03-23T11:33:14;30.73;;;14.05;;
84933;SDS011;75195;56.858;41.422;2024-03-23T11:35:41;28.95;;;16.05;;
84933;SDS011;75195;56.858;41.422;2024-03-23T11:38:14;22.70;;;12.25;;
84933;SDS011;75195;56.858;41.422;2024-03-23T11:40:46;14.68;;;7.15;;
84933;SDS011;75195;56.858;41.422;2024-03-23T11:43:15;18.98;;;9.43;;
84933;SDS011;75195;56.858;41.422;2024-03-23T11:45:47;31.00;;;16.17;;
84933;SDS011;75195;56.858;41.422;2024-03-23T11:48:15;22.00;;;12.05;;
84933;SDS011;75195;56.858;41.422;2024-03-23T11:50:47;23.38;;;13.35;;
84933;SDS011;75195;56.858;41.422;2024-03-23T11:53:18;22.77;;;11.43;;
84933;SDS011;75195;56.858;41.422;2024-03-23T11:55:46;18.48;;;10.75;;
84933;SDS011;75195;56.858;41.422;2024-03-23T11:58:17;28.77;;;12.65;;
84933;SDS011;75195;56.858;41.422;2024-03-23T12:00:50;21.92;;;10.73;;
84933;SDS011;75195;56.858;41.422;2024-03-23T12:03:18;19.02;;;10.52;;
84933;SDS011;75195;56.858;41.422;2024-03-23T12:05:48;19.90;;;10.02;;
84933;SDS011;75195;56.858;41.422;2024-03-23T12:08:16;17.30;;;9.25;;
84933;SDS011;75195;56.858;41.422;2024-03-23T12:10:44;13.75;;;8.45;;
84933;SDS011;75195;56.858;41.422;2024-03-23T12:13:14;16.23;;;8.07;;
84933;SDS011;75195;56.858;41.422;2024-03-23T12:15:47;15.52;;;9.63;;
84933;SDS011;75195;56.858;41.422;2024-03-23T12:18:17;14.15;;;8.32;;
84933;SDS011;75195;56.858;41.422;2024-03-23T12:20:43;12.18;;;7.78;;
84933;SDS011;75195;56.858;41.422;2024-03-23T12:23:11;14.10;;;7.93;;
84933;SDS011;75195;56.858;41.422;2024-03-23T12:25:41;10.60;;;6.22;;
84933;SDS011;75195;56.858;41.422;2024-03-23T12:28:07;14.05;;;7.82;;
84933;SDS011;75195;56.858;41.422;2024-03-23T12:30:35;13.52;;;7.55;;
84933;SDS011;75195;56.858;41.422;2024-03-23T12:33:02;13.80;;;8.27;;
84933;SDS011;75195;56.858;41.422;2024-03-23T12:35:29;16.15;;;8.93;;
84933;SDS011;75195;56.858;41.422;2024-03-23T12:37:55;29.45;;;14.75;;
84933;SDS011;75195;56.858;41.422;2024-03-23T12:40:22;17.25;;;9.30;;
84933;SDS011;75195;56.858;41.422;2024-03-23T12:42:48;15.27;;;8.60;;
84933;SDS011;75195;56.858;41.422;2024-03-23T12:45:15;15.30;;;8.38;;
84933;SDS011;75195;56.858;41.422;2024-03-23T12:47:41;13.57;;;7.90;;
84933;SDS011;75195;56.858;41.422;2024-03-23T12:50:08;13.20;;;7.63;;
84933;SDS011;75195;56.858;41.422;2024-03-23T12:52:35;20.02;;;10.02;;
84933;SDS011;75195;56.858;41.422;2024-03-23T12:55:02;13.93;;;8.80;;
84933;SDS011;75195;56.858;41.422;2024-03-23T12:57:32;18.95;;;9.65;;
84933;SDS011;75195;56.858;41.422;2024-03-23T12:59:59;12.20;;;7.05;;
84933;SDS011;75195;56.858;41.422;2024-03-23T13:02:26;13.93;;;7.35;;
84933;SDS011;75195;56.858;41.422;2024-03-23T13:04:53;16.02;;;8.35;;
84933;SDS011;75195;56.858;41.422;2024-03-23T13:07:20;19.30;;;9.57;;
84933;SDS011;75195;56.858;41.422;2024-03-23T13:09:50;21.15;;;10.32;;
84933;SDS011;75195;56.858;41.422;2024-03-23T13:12:17;17.42;;;9.80;;
84933;SDS011;75195;56.858;41.422;2024-03-23T13:14:46;19.35;;;11.02;;
84933;SDS011;75195;56.858;41.422;2024-03-23T13:17:13;19.15;;;9.65;;
84933;SDS011;75195;56.858;41.422;2024-03-23T13:19:39;19.20;;;9.70;;
84933;SDS011;75195;56.858;41.422;2024-03-23T13:22:06;17.13;;;10.25;;
84933;SDS011;75195;56.858;41.422;2024-03-23T13:24:33;25.70;;;12.02;;
84933;SDS011;75195;56.858;41.422;2024-03-23T13:26:59;47.38;;;23.45;;
84933;SDS011;75195;56.858;41.422;2024-03-23T13:29:25;19.98;;;10.55;;
84933;SDS011;75195;56.858;41.422;2024-03-23T13:31:52;18.10;;;10.27;;
84933;SDS011;75195;56.858;41.422;2024-03-23T13:34:19;20.50;;;10.68;;
84933;SDS011;75195;56.858;41.422;2024-03-23T13:36:46;19.98;;;10.43;;
84933;SDS011;75195;56.858;41.422;2024-03-23T13:39:14;25.55;;;12.77;;
84933;SDS011;75195;56.858;41.422;2024-03-23T13:41:42;22.92;;;11.60;;
84933;SDS011;75195;56.858;41.422;2024-03-23T13:44:10;23.08;;;12.00;;
84933;SDS011;75195;56.858;41.422;2024-03-23T13:46:38;21.33;;;12.10;;
84933;SDS011;75195;56.858;41.422;2024-03-23T13:49:29;19.48;;;10.35;;
84933;SDS011;75195;56.858;41.422;2024-03-23T13:51:58;17.83;;;9.50;;
84933;SDS011;75195;56.858;41.422;2024-03-23T13:54:25;22.17;;;11.35;;
84933;SDS011;75195;56.858;41.422;2024-03-23T13:56:54;18.02;;;9.13;;
84933;SDS011;75195;56.858;41.422;2024-03-23T13:59:21;19.27;;;10.60;;
84933;SDS011;75195;56.858;41.422;2024-03-23T14:01:50;20.92;;;11.57;;
84933;SDS011;75195;56.858;41.422;2024-03-23T14:04:17;19.00;;;10.10;;
84933;SDS011;75195;56.858;41.422;2024-03-23T14:06:48;20.92;;;10.38;;
84933;SDS011;75195;56.858;41.422;2024-03-23T14:09:14;22.17;;;11.45;;
84933;SDS011;75195;56.858;41.422;2024-03-23T14:11:47;28.40;;;12.60;;
84933;SDS011;75195;56.858;41.422;2024-03-23T14:14:14;28.08;;;14.18;;
84933;SDS011;75195;56.858;41.422;2024-03-23T14:16:43;38.45;;;20.40;;
84933;SDS011;75195;56.858;41.422;2024-03-23T14:19:10;50.35;;;22.52;;
84933;SDS011;75195;56.858;41.422;2024-03-23T14:21:36;25.92;;;13.48;;
84933;SDS011;75195;56.858;41.422;2024-03-23T14:24:04;58.42;;;28.42;;
84933;SDS011;75195;56.858;41.422;2024-03-23T14:26:30;25.92;;;13.45;;
84933;SDS011;75195;56.858;41.422;2024-03-23T14:28:57;25.10;;;11.88;;
84933;SDS011;75195;56.858;41.422;2024-03-23T14:31:24;28.10;;;14.55;;
84933;SDS011;75195;56.858;41.422;2024-03-23T14:33:51;22.45;;;10.85;;
84933;SDS011;75195;56.858;41.422;2024-03-23T14:36:17;23.05;;;11.40;;
84933;SDS011;75195;56.858;41.422;2024-03-23T14:38:47;25.27;;;12.45;;
84933;SDS011;75195;56.858;41.422;2024-03-23T14:41:14;22.98;;;11.57;;
84933;SDS011;75195;56.858;41.422;2024-03-23T14:43:41;28.42;;;13.02;;
84933;SDS011;75195;56.858;41.422;2024-03-23T14:46:10;25.33;;;12.30;;
84933;SDS011;75195;56.858;41.422;2024-03-23T14:48:42;24.80;;;12.00;;
84933;SDS011;75195;56.858;41.422;2024-03-23T14:51:10;24.23;;;11.25;;
84933;SDS011;75195;56.858;41.422;2024-03-23T14:53:38;21.35;;;11.48;;
84933;SDS011;75195;56.858;41.422;2024-03-23T14:56:07;31.05;;;13.35;;
84933;SDS011;75195;56.858;41.422;2024-03-23T14:58:34;29.40;;;13.85;;
84933;SDS011;75195;56.858;41.422;2024-03-23T15:01:01;25.45;;;11.80;;
84933;SDS011;75195;56.858;41.422;2024-03-23T15:03:28;18.92;;;10.23;;
84933;SDS011;75195;56.858;41.422;2024-03-23T15:05:55;26.52;;;11.25;;
84933;SDS011;75195;56.858;41.422;2024-03-23T15:08:23;23.23;;;10.82;;
84933;SDS011;75195;56.858;41.422;2024-03-23T15:10:49;21.45;;;10.80;;